createdAt,value
2023-01-25T00:02:04.940Z,1.16293
2023-01-25T00:07:05.903Z,1.16422
2023-01-25T00:12:06.858Z,1.2075
2023-01-25T00:17:07.785Z,1.32734
2023-01-25T00:22:08.697Z,1.44621
2023-01-25T00:27:09.658Z,1.5008
2023-01-25T00:32:10.754Z,1.40066
2023-01-25T00:37:11.878Z,1.34834
2023-01-25T00:42:12.936Z,1.35964
2023-01-25T00:47:14.164Z,1.44201
2023-01-25T00:52:15.173Z,1.44944
2023-01-25T00:57:16.213Z,1.51404
2023-01-25T01:02:17.205Z,1.58801
2023-01-25T01:07:18.232Z,1.53213
2023-01-25T01:12:19.204Z,1.38516
2023-01-25T01:17:20.409Z,1.26791
2023-01-25T01:22:21.439Z,1.37515
2023-01-25T01:27:22.371Z,1.38871
2023-01-25T01:32:23.519Z,1.411
2023-01-25T01:37:24.453Z,1.40163
2023-01-25T01:42:25.450Z,1.51016
2023-01-25T01:47:26.419Z,1.59512
2023-01-25T01:52:27.340Z,1.53084
2023-01-25T01:57:28.341Z,1.59059
2023-01-25T02:02:29.342Z,1.62289
2023-01-25T02:07:30.362Z,1.65487
2023-01-25T02:12:31.322Z,1.63291
2023-01-25T02:17:32.243Z,1.52341
2023-01-25T02:22:33.295Z,1.59931
2023-01-25T02:27:34.298Z,1.62031
2023-01-25T02:32:35.253Z,1.67167
2023-01-25T02:37:36.233Z,1.75113
2023-01-25T02:42:37.180Z,1.63226
2023-01-25T02:47:38.070Z,1.66392
2023-01-25T02:52:39.024Z,1.68976
2023-01-25T02:57:40.080Z,1.69234
2023-01-25T03:02:41.060Z,1.70106
2023-01-25T03:07:41.999Z,1.68459
2023-01-25T03:12:42.928Z,1.67038
2023-01-25T03:17:43.907Z,1.72044
2023-01-25T03:22:44.885Z,1.72593
2023-01-25T03:27:45.792Z,1.69589
2023-01-25T03:32:46.722Z,1.72497
2023-01-25T03:37:47.673Z,1.75953
2023-01-25T03:42:48.617Z,1.78278
2023-01-25T03:47:49.597Z,1.78634
2023-01-25T03:52:50.487Z,1.81089
2023-01-25T03:57:51.381Z,1.8209
2023-01-25T04:02:52.307Z,1.69848
2023-01-25T04:07:53.252Z,1.65293
2023-01-25T04:12:54.201Z,1.72852
2023-01-25T04:17:55.096Z,1.7592
2023-01-25T04:22:56.046Z,1.72206
2023-01-25T04:27:56.975Z,1.72561
2023-01-25T04:32:57.895Z,1.82122
2023-01-25T04:37:58.841Z,1.66489
2023-01-25T04:43:00.346Z,1.62096
2023-01-25T04:48:01.472Z,1.70042
2023-01-25T04:53:02.392Z,1.72884
2023-01-25T04:58:03.370Z,1.73595
2023-01-25T05:03:04.349Z,1.72174
2023-01-25T05:08:05.264Z,1.65423
2023-01-25T05:13:06.235Z,1.61482
2023-01-25T05:18:07.227Z,1.62709
2023-01-25T05:23:08.175Z,1.52341
2023-01-25T05:28:09.064Z,1.60997
2023-01-25T05:33:10.007Z,1.62968
2023-01-25T05:38:10.931Z,1.68847
2023-01-25T05:43:11.892Z,1.65907
2023-01-25T05:48:12.813Z,1.71528
2023-01-25T05:53:13.739Z,1.78343
2023-01-25T05:58:14.664Z,1.7999
2023-01-25T06:03:15.939Z,1.73692
2023-01-25T06:08:16.969Z,1.73562
2023-01-25T06:13:17.903Z,1.66618
2023-01-25T06:18:18.824Z,1.6103
2023-01-25T06:23:19.772Z,1.56378
2023-01-25T06:28:20.694Z,1.59447
2023-01-25T06:33:21.786Z,1.52987
2023-01-25T06:38:22.737Z,1.49983
2023-01-25T06:43:23.823Z,1.48239
2023-01-25T06:48:24.877Z,1.42715
2023-01-25T06:53:26.098Z,1.49272
2023-01-25T06:58:27.213Z,1.43458
2023-01-25T07:03:28.297Z,1.42973
2023-01-25T07:08:29.294Z,1.24077
2023-01-25T07:13:30.599Z,1.16293
2023-01-25T07:18:31.634Z,1.16487
2023-01-25T07:23:32.641Z,1.11739
2023-01-25T07:28:33.642Z,1.11545
2023-01-25T07:33:34.643Z,1.19878
2023-01-25T07:38:35.565Z,1.11028
2023-01-25T07:43:36.641Z,1.0179
2023-01-25T07:48:37.584Z,0.99949
2023-01-25T07:53:38.516Z,0.93101
2023-01-25T07:58:39.440Z,1.07927
2023-01-25T08:03:40.412Z,1.14678
2023-01-25T08:08:41.526Z,1.19232
2023-01-25T08:13:42.535Z,1.16261
2023-01-25T08:18:43.443Z,1.03857
2023-01-25T08:23:44.434Z,1.12837
2023-01-25T08:28:45.530Z,1.17165
2023-01-25T08:33:46.479Z,1.08735
2023-01-25T08:38:47.732Z,1.02371
2023-01-25T08:43:49.161Z,1.00207
2023-01-25T08:48:50.179Z,0.86512
2023-01-25T08:53:51.354Z,0.76854
2023-01-25T08:58:52.281Z,0.75723
2023-01-25T09:03:53.319Z,0.71298
2023-01-25T09:08:54.402Z,0.75239
2023-01-25T09:13:55.433Z,0.88644
2023-01-25T09:18:56.411Z,0.98431
2023-01-25T09:24:07.193Z,1.07346
2023-01-25T09:29:08.648Z,1.18166
2023-01-25T09:34:09.655Z,1.19265
2023-01-25T09:39:10.538Z,1.05375
2023-01-25T09:44:14.951Z,0.87481
2023-01-25T09:49:16.345Z,0.83734
2023-01-25T09:54:17.577Z,0.89903
2023-01-25T09:59:18.837Z,0.97106
2023-01-25T10:04:20.016Z,0.98108
2023-01-25T10:09:21.042Z,0.9491
2023-01-25T10:14:22.009Z,0.95394
2023-01-25T10:19:23.030Z,0.84251
2023-01-25T10:24:24.051Z,0.86738
2023-01-25T10:29:25.167Z,0.94878
2023-01-25T10:34:26.274Z,0.9856
2023-01-25T10:39:27.792Z,0.91518
2023-01-25T10:44:28.774Z,0.93198
2023-01-25T10:49:29.702Z,1.06538
2023-01-25T10:54:30.626Z,1.28309
2023-01-25T10:59:31.763Z,1.26145
2023-01-25T11:04:32.702Z,1.16358
2023-01-25T11:09:33.680Z,1.23205
2023-01-25T11:14:34.757Z,1.11416
2023-01-25T11:19:35.735Z,1.13547
2023-01-25T11:24:36.695Z,1.09994
2023-01-25T11:29:37.877Z,1.17423
2023-01-25T11:34:38.977Z,1.23108
2023-01-25T11:39:39.960Z,1.09833
2023-01-25T11:44:40.875Z,0.99044
2023-01-25T11:49:41.913Z,1.13063
2023-01-25T11:54:42.958Z,1.16358
2023-01-25T11:59:43.916Z,1.09962
2023-01-25T12:04:44.957Z,1.08993
2023-01-25T12:09:45.899Z,1.0053
2023-01-25T12:14:46.892Z,0.91131
2023-01-25T12:19:47.802Z,0.87545
2023-01-25T12:24:48.992Z,0.84735
2023-01-25T12:29:50.080Z,0.98237
2023-01-25T12:34:51.169Z,0.95943
2023-01-25T12:39:52.117Z,0.90162
2023-01-25T12:44:53.586Z,0.79309
2023-01-25T12:49:54.489Z,0.78469
2023-01-25T12:54:56.953Z,0.82894
2023-01-25T12:59:57.975Z,0.8438
2023-01-25T13:04:58.933Z,0.81699
2023-01-25T13:10:00.200Z,0.83152
2023-01-25T13:15:01.585Z,0.70168
2023-01-25T13:20:02.611Z,0.78792
2023-01-25T13:25:03.511Z,0.78049
2023-01-25T13:30:04.481Z,0.65096
2023-01-25T13:35:05.423Z,0.6051
2023-01-25T13:40:06.778Z,0.66808
2023-01-25T13:45:08.329Z,0.81667
2023-01-25T13:50:09.814Z,0.88288
2023-01-25T13:55:10.856Z,0.95168
2023-01-25T14:00:11.917Z,0.88902
2023-01-25T14:05:12.881Z,0.85349
2023-01-25T14:10:13.808Z,0.8228
2023-01-25T14:15:14.726Z,0.85381
2023-01-25T14:20:15.684Z,0.88224
2023-01-25T14:25:16.632Z,0.8677
2023-01-25T14:30:17.559Z,0.74916
2023-01-25T14:35:18.564Z,0.681
2023-01-25T14:40:19.540Z,0.59541
2023-01-25T14:45:20.610Z,0.50949
2023-01-25T14:50:21.504Z,0.5799
2023-01-25T14:55:22.414Z,0.59605
2023-01-25T15:00:23.304Z,0.57893
2023-01-25T15:05:24.231Z,0.59734
2023-01-25T15:10:25.118Z,0.60187
2023-01-25T15:15:26.027Z,0.75271
2023-01-25T15:20:28.204Z,0.74528
2023-01-25T15:25:30.052Z,0.8564
2023-01-25T15:30:30.998Z,0.97623
2023-01-25T15:35:32.054Z,0.94232
2023-01-25T15:40:32.971Z,0.81957
2023-01-25T15:45:34.028Z,0.65549
2023-01-25T15:50:35.003Z,0.50593
2023-01-25T15:55:36.044Z,0.43552
2023-01-25T16:00:37.140Z,0.4465
2023-01-25T16:05:38.173Z,0.4914
2023-01-25T16:10:39.114Z,0.45522
2023-01-25T16:15:40.112Z,0.38319
2023-01-25T16:20:41.065Z,0.40096
2023-01-25T16:25:41.982Z,0.48946
2023-01-25T16:30:42.989Z,0.53403
2023-01-25T16:35:43.993Z,0.50981
2023-01-25T16:40:45.013Z,0.29824
2023-01-25T16:45:46.032Z,0.26756
2023-01-25T16:50:46.998Z,0.22976
2023-01-25T16:55:47.997Z,0.25173
2023-01-25T17:00:48.948Z,0.25528
2023-01-25T17:05:49.955Z,0.30438
2023-01-25T17:10:50.981Z,0.33216
2023-01-25T17:15:52.017Z,0.3286
2023-01-25T17:20:53.019Z,0.28241
2023-01-25T17:25:54.095Z,0.16322
2023-01-25T17:30:55.162Z,0.24398
2023-01-25T17:35:56.191Z,0.22556
2023-01-25T17:40:57.093Z,0.18422
2023-01-25T17:45:58.131Z,0.26142
2023-01-25T17:50:59.047Z,0.27014
2023-01-25T17:56:00.346Z,0.24172
2023-01-25T18:01:13.085Z,0.26142
2023-01-25T18:06:15.038Z,0.2611
2023-01-25T18:11:15.944Z,0.2808
2023-01-25T18:16:16.969Z,0.18164
2023-01-25T18:21:18.091Z,0.11865
2023-01-25T18:26:19.027Z,0.17356
2023-01-25T18:31:20.141Z,0.13125
2023-01-25T18:36:21.375Z,0.14126
2023-01-25T18:41:22.313Z,0.07278
2023-01-25T18:46:23.337Z,0.00301
2023-01-25T18:51:24.407Z,0.0337
2023-01-25T18:56:25.367Z,-0.0028
2023-01-25T19:01:26.380Z,0.06988
2023-01-25T19:06:27.432Z,0.26497
2023-01-25T19:11:28.364Z,0.31794
2023-01-25T19:16:29.291Z,0.26336
2023-01-25T19:21:30.284Z,0.26497
2023-01-25T19:26:31.179Z,0.28048
2023-01-25T19:31:32.310Z,0.2233
2023-01-25T19:36:33.373Z,0.23461
2023-01-25T19:41:34.279Z,-0.01184
2023-01-25T19:46:35.283Z,-0.17205
2023-01-25T19:51:36.473Z,-0.11779
2023-01-25T19:56:37.525Z,-0.0464
2023-01-25T20:01:38.547Z,-0.14977
2023-01-25T20:06:39.737Z,-0.20984
2023-01-25T20:11:40.688Z,-0.19531
2023-01-25T20:16:41.643Z,-0.16656
2023-01-25T20:21:42.581Z,-0.18142
2023-01-25T20:26:43.518Z,-0.15397
2023-01-25T20:31:44.567Z,-0.19692
2023-01-25T20:36:45.563Z,-0.30771
2023-01-25T20:41:46.462Z,-0.48666
2023-01-25T20:46:47.476Z,-0.57484
2023-01-25T20:51:48.440Z,-0.58356
2023-01-25T20:56:49.405Z,-0.601
2023-01-25T21:01:50.392Z,-0.41947
2023-01-25T21:06:51.345Z,-0.455
2023-01-25T21:11:52.327Z,-0.38233
2023-01-25T21:16:53.295Z,-0.30739
2023-01-25T21:21:54.279Z,-0.15913
2023-01-25T21:26:55.341Z,-0.2176
2023-01-25T21:31:56.346Z,-0.19725
2023-01-25T21:36:57.337Z,-0.27671
2023-01-25T21:41:58.290Z,-0.36973
2023-01-25T21:47:29.615Z,-0.36682
2023-01-25T21:52:31.597Z,-0.37716
2023-01-25T21:57:32.504Z,-0.24021
2023-01-25T22:02:33.465Z,-0.22987
2023-01-25T22:07:34.438Z,-0.26346
2023-01-25T22:12:35.375Z,-0.26831
2023-01-25T22:17:36.314Z,-0.24408
2023-01-25T22:22:37.312Z,-0.22309
2023-01-25T22:27:38.309Z,-0.18756
2023-01-25T22:32:39.838Z,-0.19079
2023-01-25T22:37:40.831Z,-0.14557
2023-01-25T22:42:41.757Z,-0.16269
2023-01-25T22:47:42.778Z,-0.22599
2023-01-25T22:52:43.679Z,-0.31224
2023-01-25T22:57:44.658Z,-0.39234
2023-01-25T23:02:45.561Z,-0.31934
2023-01-25T23:07:46.526Z,-0.25054
2023-01-25T23:12:47.436Z,-0.14944
2023-01-25T23:17:48.372Z,-0.10002
2023-01-25T23:22:49.321Z,-0.02153
2023-01-25T23:27:50.357Z,-0.01895
2023-01-25T23:32:51.278Z,-0.0477
2023-01-25T23:37:52.222Z,-0.14234
2023-01-25T23:42:53.755Z,-0.13523
2023-01-25T23:47:54.746Z,-0.01507
2023-01-25T23:52:55.721Z,0.00592
2023-01-25T23:57:56.663Z,-0.0477
